sensor_id;sensor_type;location;lat;lon;timestamp;P1;durP1;ratioP1;P2;durP2;ratioP2
72557;SDS011;60583;50.094;8.748;2023-12-04T00:01:34;20.83;;;9.60;;
72557;SDS011;60583;50.094;8.748;2023-12-04T00:04:00;21.08;;;9.68;;
72557;SDS011;60583;50.094;8.748;2023-12-04T00:06:26;21.60;;;9.30;;
72557;SDS011;60583;50.094;8.748;2023-12-04T00:08:51;18.95;;;9.77;;
72557;SDS011;60583;50.094;8.748;2023-12-04T00:11:17;20.98;;;9.50;;
72557;SDS011;60583;50.094;8.748;2023-12-04T00:13:42;23.08;;;9.77;;
72557;SDS011;60583;50.094;8.748;2023-12-04T00:16:08;20.73;;;8.90;;
72557;SDS011;60583;50.094;8.748;2023-12-04T00:18:34;19.73;;;9.23;;
72557;SDS011;60583;50.094;8.748;2023-12-04T00:21:00;19.45;;;9.10;;
72557;SDS011;60583;50.094;8.748;2023-12-04T00:23:25;19.67;;;8.95;;
72557;SDS011;60583;50.094;8.748;2023-12-04T00:25:51;19.35;;;9.55;;
72557;SDS011;60583;50.094;8.748;2023-12-04T00:28:17;21.67;;;9.98;;
72557;SDS011;60583;50.094;8.748;2023-12-04T00:30:42;20.02;;;9.23;;
72557;SDS011;60583;50.094;8.748;2023-12-04T00:33:07;18.40;;;8.25;;
72557;SDS011;60583;50.094;8.748;2023-12-04T00:35:33;22.27;;;10.13;;
72557;SDS011;60583;50.094;8.748;2023-12-04T00:37:59;21.50;;;9.57;;
72557;SDS011;60583;50.094;8.748;2023-12-04T00:40:24;19.55;;;9.85;;
72557;SDS011;60583;50.094;8.748;2023-12-04T00:42:50;21.88;;;9.90;;
72557;SDS011;60583;50.094;8.748;2023-12-04T00:45:15;20.02;;;8.95;;
72557;SDS011;60583;50.094;8.748;2023-12-04T00:47:40;21.13;;;9.93;;
72557;SDS011;60583;50.094;8.748;2023-12-04T00:50:06;18.35;;;9.07;;
72557;SDS011;60583;50.094;8.748;2023-12-04T00:52:32;22.10;;;9.60;;
72557;SDS011;60583;50.094;8.748;2023-12-04T00:54:57;21.08;;;9.43;;
72557;SDS011;60583;50.094;8.748;2023-12-04T00:57:22;17.33;;;9.43;;
72557;SDS011;60583;50.094;8.748;2023-12-04T00:59:48;21.15;;;8.90;;
72557;SDS011;60583;50.094;8.748;2023-12-04T01:02:13;19.08;;;8.95;;
72557;SDS011;60583;50.094;8.748;2023-12-04T01:04:42;19.33;;;9.38;;
72557;SDS011;60583;50.094;8.748;2023-12-04T01:07:07;21.23;;;9.70;;
72557;SDS011;60583;50.094;8.748;2023-12-04T01:09:36;20.17;;;8.60;;
72557;SDS011;60583;50.094;8.748;2023-12-04T01:12:02;22.02;;;9.15;;
72557;SDS011;60583;50.094;8.748;2023-12-04T01:14:28;18.17;;;7.85;;
72557;SDS011;60583;50.094;8.748;2023-12-04T01:16:54;22.05;;;9.52;;
72557;SDS011;60583;50.094;8.748;2023-12-04T01:19:19;19.33;;;8.95;;
72557;SDS011;60583;50.094;8.748;2023-12-04T01:21:44;20.38;;;9.60;;
72557;SDS011;60583;50.094;8.748;2023-12-04T01:24:10;19.75;;;8.70;;
72557;SDS011;60583;50.094;8.748;2023-12-04T01:26:36;20.95;;;9.27;;
72557;SDS011;60583;50.094;8.748;2023-12-04T01:29:02;22.50;;;9.80;;
72557;SDS011;60583;50.094;8.748;2023-12-04T01:31:27;19.48;;;8.85;;
72557;SDS011;60583;50.094;8.748;2023-12-04T01:33:52;18.55;;;8.70;;
72557;SDS011;60583;50.094;8.748;2023-12-04T01:36:18;22.20;;;9.38;;
72557;SDS011;60583;50.094;8.748;2023-12-04T01:38:43;20.42;;;9.27;;
72557;SDS011;60583;50.094;8.748;2023-12-04T01:41:09;19.35;;;9.68;;
72557;SDS011;60583;50.094;8.748;2023-12-04T01:43:34;21.63;;;9.40;;
72557;SDS011;60583;50.094;8.748;2023-12-04T01:46:00;22.95;;;9.82;;
72557;SDS011;60583;50.094;8.748;2023-12-04T01:48:26;22.50;;;10.43;;
72557;SDS011;60583;50.094;8.748;2023-12-04T01:50:52;18.92;;;8.88;;
72557;SDS011;60583;50.094;8.748;2023-12-04T01:53:18;21.38;;;9.65;;
72557;SDS011;60583;50.094;8.748;2023-12-04T01:55:44;17.17;;;8.57;;
72557;SDS011;60583;50.094;8.748;2023-12-04T01:58:10;21.67;;;10.30;;
72557;SDS011;60583;50.094;8.748;2023-12-04T02:00:36;23.13;;;10.35;;
72557;SDS011;60583;50.094;8.748;2023-12-04T02:03:02;21.90;;;10.00;;
72557;SDS011;60583;50.094;8.748;2023-12-04T02:05:27;21.98;;;9.57;;
72557;SDS011;60583;50.094;8.748;2023-12-04T02:07:53;20.92;;;9.35;;
72557;SDS011;60583;50.094;8.748;2023-12-04T02:10:20;22.52;;;9.88;;
72557;SDS011;60583;50.094;8.748;2023-12-04T02:12:46;21.85;;;9.27;;
72557;SDS011;60583;50.094;8.748;2023-12-04T02:15:11;21.77;;;9.68;;
72557;SDS011;60583;50.094;8.748;2023-12-04T02:17:37;21.40;;;9.25;;
72557;SDS011;60583;50.094;8.748;2023-12-04T02:20:04;20.33;;;9.35;;
72557;SDS011;60583;50.094;8.748;2023-12-04T02:22:30;20.15;;;9.52;;
72557;SDS011;60583;50.094;8.748;2023-12-04T02:24:55;20.92;;;9.25;;
72557;SDS011;60583;50.094;8.748;2023-12-04T02:27:29;20.35;;;9.02;;
72557;SDS011;60583;50.094;8.748;2023-12-04T02:30:14;21.35;;;9.50;;
72557;SDS011;60583;50.094;8.748;2023-12-04T02:32:44;20.73;;;9.70;;
72557;SDS011;60583;50.094;8.748;2023-12-04T02:35:11;19.98;;;8.57;;
72557;SDS011;60583;50.094;8.748;2023-12-04T02:37:40;20.13;;;9.07;;
72557;SDS011;60583;50.094;8.748;2023-12-04T02:40:06;21.67;;;9.25;;
72557;SDS011;60583;50.094;8.748;2023-12-04T02:42:32;21.20;;;10.20;;
72557;SDS011;60583;50.094;8.748;2023-12-04T02:44:58;21.98;;;10.63;;
72557;SDS011;60583;50.094;8.748;2023-12-04T02:47:23;21.83;;;9.57;;
72557;SDS011;60583;50.094;8.748;2023-12-04T02:49:49;22.25;;;9.38;;
72557;SDS011;60583;50.094;8.748;2023-12-04T02:52:14;19.45;;;9.52;;
72557;SDS011;60583;50.094;8.748;2023-12-04T02:54:40;24.70;;;9.68;;
72557;SDS011;60583;50.094;8.748;2023-12-04T02:57:05;20.92;;;9.85;;
72557;SDS011;60583;50.094;8.748;2023-12-04T02:59:30;18.60;;;8.82;;
72557;SDS011;60583;50.094;8.748;2023-12-04T03:01:56;24.02;;;10.27;;
72557;SDS011;60583;50.094;8.748;2023-12-04T03:04:21;23.75;;;9.98;;
72557;SDS011;60583;50.094;8.748;2023-12-04T03:06:47;21.15;;;9.70;;
72557;SDS011;60583;50.094;8.748;2023-12-04T03:09:12;24.95;;;10.43;;
72557;SDS011;60583;50.094;8.748;2023-12-04T03:11:41;25.67;;;10.38;;
72557;SDS011;60583;50.094;8.748;2023-12-04T03:14:07;20.92;;;9.57;;
72557;SDS011;60583;50.094;8.748;2023-12-04T03:16:32;21.15;;;9.48;;
72557;SDS011;60583;50.094;8.748;2023-12-04T03:18:58;21.35;;;9.90;;
72557;SDS011;60583;50.094;8.748;2023-12-04T03:21:23;22.00;;;9.85;;
72557;SDS011;60583;50.094;8.748;2023-12-04T03:23:49;24.08;;;10.60;;
72557;SDS011;60583;50.094;8.748;2023-12-04T03:26:14;21.90;;;9.30;;
72557;SDS011;60583;50.094;8.748;2023-12-04T03:28:39;18.20;;;8.38;;
72557;SDS011;60583;50.094;8.748;2023-12-04T03:31:05;22.92;;;9.65;;
72557;SDS011;60583;50.094;8.748;2023-12-04T03:33:31;22.48;;;9.43;;
72557;SDS011;60583;50.094;8.748;2023-12-04T03:35:56;23.85;;;10.05;;
72557;SDS011;60583;50.094;8.748;2023-12-04T03:38:22;24.55;;;11.38;;
72557;SDS011;60583;50.094;8.748;2023-12-04T03:40:47;20.45;;;10.20;;
72557;SDS011;60583;50.094;8.748;2023-12-04T03:43:12;23.25;;;10.43;;
72557;SDS011;60583;50.094;8.748;2023-12-04T03:45:38;24.42;;;10.38;;
72557;SDS011;60583;50.094;8.748;2023-12-04T03:48:03;22.88;;;10.38;;
72557;SDS011;60583;50.094;8.748;2023-12-04T03:50:29;22.70;;;9.73;;
72557;SDS011;60583;50.094;8.748;2023-12-04T03:52:54;22.10;;;9.55;;
72557;SDS011;60583;50.094;8.748;2023-12-04T03:55:20;22.23;;;9.93;;
72557;SDS011;60583;50.094;8.748;2023-12-04T03:57:45;21.17;;;9.70;;
72557;SDS011;60583;50.094;8.748;2023-12-04T04:00:11;20.10;;;8.80;;
72557;SDS011;60583;50.094;8.748;2023-12-04T04:02:38;20.77;;;8.10;;
72557;SDS011;60583;50.094;8.748;2023-12-04T04:05:04;20.73;;;9.55;;
72557;SDS011;60583;50.094;8.748;2023-12-04T04:07:30;19.38;;;9.35;;
72557;SDS011;60583;50.094;8.748;2023-12-04T04:09:56;20.15;;;8.68;;
72557;SDS011;60583;50.094;8.748;2023-12-04T04:12:21;20.60;;;8.85;;
72557;SDS011;60583;50.094;8.748;2023-12-04T04:14:47;22.58;;;9.80;;
72557;SDS011;60583;50.094;8.748;2023-12-04T04:17:12;21.63;;;11.10;;
72557;SDS011;60583;50.094;8.748;2023-12-04T04:19:38;22.00;;;9.52;;
72557;SDS011;60583;50.094;8.748;2023-12-04T04:22:03;23.05;;;10.20;;
72557;SDS011;60583;50.094;8.748;2023-12-04T04:24:28;20.83;;;9.68;;
72557;SDS011;60583;50.094;8.748;2023-12-04T04:26:54;25.73;;;10.55;;
72557;SDS011;60583;50.094;8.748;2023-12-04T04:29:19;21.10;;;9.40;;
72557;SDS011;60583;50.094;8.748;2023-12-04T04:31:45;22.73;;;9.88;;
72557;SDS011;60583;50.094;8.748;2023-12-04T04:34:10;21.70;;;9.88;;
72557;SDS011;60583;50.094;8.748;2023-12-04T04:36:35;21.52;;;9.75;;
72557;SDS011;60583;50.094;8.748;2023-12-04T04:39:01;22.58;;;10.23;;
72557;SDS011;60583;50.094;8.748;2023-12-04T04:41:27;21.65;;;9.82;;
72557;SDS011;60583;50.094;8.748;2023-12-04T04:43:52;24.33;;;10.20;;
72557;SDS011;60583;50.094;8.748;2023-12-04T04:46:18;22.00;;;10.15;;
72557;SDS011;60583;50.094;8.748;2023-12-04T04:48:44;25.30;;;10.80;;
72557;SDS011;60583;50.094;8.748;2023-12-04T04:51:09;23.98;;;9.52;;
72557;SDS011;60583;50.094;8.748;2023-12-04T04:53:35;21.60;;;10.20;;
72557;SDS011;60583;50.094;8.748;2023-12-04T04:56:00;22.83;;;10.32;;
72557;SDS011;60583;50.094;8.748;2023-12-04T04:58:25;23.52;;;10.70;;
72557;SDS011;60583;50.094;8.748;2023-12-04T05:00:51;24.45;;;10.68;;
72557;SDS011;60583;50.094;8.748;2023-12-04T05:03:16;20.77;;;9.55;;
72557;SDS011;60583;50.094;8.748;2023-12-04T05:05:42;20.50;;;9.82;;
72557;SDS011;60583;50.094;8.748;2023-12-04T05:08:07;20.98;;;9.55;;
72557;SDS011;60583;50.094;8.748;2023-12-04T05:10:33;22.20;;;10.07;;
72557;SDS011;60583;50.094;8.748;2023-12-04T05:12:58;23.15;;;9.50;;
72557;SDS011;60583;50.094;8.748;2023-12-04T05:15:24;22.58;;;10.07;;
72557;SDS011;60583;50.094;8.748;2023-12-04T05:17:50;22.70;;;9.88;;
72557;SDS011;60583;50.094;8.748;2023-12-04T05:20:16;20.35;;;9.63;;
72557;SDS011;60583;50.094;8.748;2023-12-04T05:22:42;21.95;;;10.88;;
72557;SDS011;60583;50.094;8.748;2023-12-04T05:25:07;21.45;;;10.30;;
72557;SDS011;60583;50.094;8.748;2023-12-04T05:27:33;21.15;;;10.02;;
72557;SDS011;60583;50.094;8.748;2023-12-04T05:29:58;23.40;;;10.93;;
72557;SDS011;60583;50.094;8.748;2023-12-04T05:32:23;24.58;;;10.18;;
72557;SDS011;60583;50.094;8.748;2023-12-04T05:34:49;21.42;;;9.95;;
72557;SDS011;60583;50.094;8.748;2023-12-04T05:37:14;21.50;;;10.40;;
72557;SDS011;60583;50.094;8.748;2023-12-04T05:39:40;21.15;;;10.10;;
72557;SDS011;60583;50.094;8.748;2023-12-04T05:42:06;21.70;;;9.75;;
72557;SDS011;60583;50.094;8.748;2023-12-04T05:44:32;22.88;;;10.57;;
72557;SDS011;60583;50.094;8.748;2023-12-04T05:46:57;21.42;;;10.30;;
72557;SDS011;60583;50.094;8.748;2023-12-04T05:49:23;21.63;;;9.90;;
72557;SDS011;60583;50.094;8.748;2023-12-04T05:51:49;22.85;;;10.20;;
72557;SDS011;60583;50.094;8.748;2023-12-04T05:54:15;23.90;;;11.15;;
72557;SDS011;60583;50.094;8.748;2023-12-04T05:56:40;22.90;;;10.18;;
72557;SDS011;60583;50.094;8.748;2023-12-04T05:59:05;23.52;;;10.93;;
72557;SDS011;60583;50.094;8.748;2023-12-04T06:01:31;20.95;;;10.40;;
72557;SDS011;60583;50.094;8.748;2023-12-04T06:03:56;23.48;;;10.15;;
72557;SDS011;60583;50.094;8.748;2023-12-04T06:09:53;20.70;;;9.52;;
72557;SDS011;60583;50.094;8.748;2023-12-04T06:12:18;22.20;;;10.45;;
72557;SDS011;60583;50.094;8.748;2023-12-04T06:14:44;23.27;;;9.82;;
72557;SDS011;60583;50.094;8.748;2023-12-04T06:17:09;20.95;;;9.38;;
72557;SDS011;60583;50.094;8.748;2023-12-04T06:19:34;21.85;;;9.85;;
72557;SDS011;60583;50.094;8.748;2023-12-04T06:22:00;24.65;;;10.35;;
72557;SDS011;60583;50.094;8.748;2023-12-04T06:24:25;21.88;;;9.30;;
72557;SDS011;60583;50.094;8.748;2023-12-04T06:26:51;22.98;;;10.02;;
72557;SDS011;60583;50.094;8.748;2023-12-04T06:29:18;21.25;;;10.15;;
72557;SDS011;60583;50.094;8.748;2023-12-04T06:31:44;22.05;;;9.30;;
72557;SDS011;60583;50.094;8.748;2023-12-04T06:34:10;19.48;;;9.48;;
72557;SDS011;60583;50.094;8.748;2023-12-04T06:36:37;21.70;;;9.60;;
72557;SDS011;60583;50.094;8.748;2023-12-04T06:39:04;20.05;;;9.55;;
72557;SDS011;60583;50.094;8.748;2023-12-04T06:44:00;20.13;;;8.68;;
72557;SDS011;60583;50.094;8.748;2023-12-04T06:46:26;24.08;;;9.65;;
72557;SDS011;60583;50.094;8.748;2023-12-04T06:48:58;18.85;;;9.52;;
72557;SDS011;60583;50.094;8.748;2023-12-04T06:51:24;19.02;;;9.05;;
72557;SDS011;60583;50.094;8.748;2023-12-04T06:53:50;20.13;;;10.18;;
72557;SDS011;60583;50.094;8.748;2023-12-04T06:56:15;21.23;;;9.35;;
72557;SDS011;60583;50.094;8.748;2023-12-04T06:58:41;22.83;;;9.85;;
72557;SDS011;60583;50.094;8.748;2023-12-04T07:01:06;23.13;;;10.00;;
72557;SDS011;60583;50.094;8.748;2023-12-04T07:03:32;21.13;;;9.23;;
72557;SDS011;60583;50.094;8.748;2023-12-04T07:05:57;19.98;;;9.50;;
72557;SDS011;60583;50.094;8.748;2023-12-04T07:08:22;19.17;;;9.20;;
72557;SDS011;60583;50.094;8.748;2023-12-04T07:10:48;18.00;;;9.13;;
72557;SDS011;60583;50.094;8.748;2023-12-04T07:13:14;18.35;;;9.18;;
72557;SDS011;60583;50.094;8.748;2023-12-04T07:15:39;19.35;;;9.45;;
72557;SDS011;60583;50.094;8.748;2023-12-04T07:18:04;21.02;;;9.32;;
72557;SDS011;60583;50.094;8.748;2023-12-04T07:20:30;21.27;;;9.43;;
72557;SDS011;60583;50.094;8.748;2023-12-04T07:22:55;20.02;;;10.15;;
72557;SDS011;60583;50.094;8.748;2023-12-04T07:25:23;21.42;;;9.68;;
72557;SDS011;60583;50.094;8.748;2023-12-04T07:27:49;19.30;;;8.90;;
72557;SDS011;60583;50.094;8.748;2023-12-04T07:30:14;21.38;;;9.38;;
72557;SDS011;60583;50.094;8.748;2023-12-04T07:32:40;15.80;;;7.88;;
72557;SDS011;60583;50.094;8.748;2023-12-04T07:35:05;20.00;;;9.45;;
72557;SDS011;60583;50.094;8.748;2023-12-04T07:37:31;20.52;;;9.18;;
72557;SDS011;60583;50.094;8.748;2023-12-04T07:39:57;20.90;;;10.38;;
72557;SDS011;60583;50.094;8.748;2023-12-04T07:42:22;20.15;;;8.70;;
72557;SDS011;60583;50.094;8.748;2023-12-04T07:44:48;18.90;;;9.75;;
72557;SDS011;60583;50.094;8.748;2023-12-04T07:47:14;20.30;;;8.93;;
72557;SDS011;60583;50.094;8.748;2023-12-04T07:49:41;19.83;;;9.45;;
72557;SDS011;60583;50.094;8.748;2023-12-04T07:52:06;19.80;;;9.10;;
72557;SDS011;60583;50.094;8.748;2023-12-04T07:54:32;17.73;;;8.32;;
72557;SDS011;60583;50.094;8.748;2023-12-04T07:56:57;19.52;;;8.65;;
72557;SDS011;60583;50.094;8.748;2023-12-04T07:59:23;19.88;;;8.55;;
72557;SDS011;60583;50.094;8.748;2023-12-04T08:01:48;16.60;;;7.88;;
72557;SDS011;60583;50.094;8.748;2023-12-04T08:04:14;16.08;;;8.38;;
72557;SDS011;60583;50.094;8.748;2023-12-04T08:06:39;17.17;;;8.77;;
72557;SDS011;60583;50.094;8.748;2023-12-04T08:09:05;19.27;;;9.10;;
72557;SDS011;60583;50.094;8.748;2023-12-04T08:11:35;19.35;;;8.80;;
72557;SDS011;60583;50.094;8.748;2023-12-04T08:14:02;18.63;;;7.85;;
72557;SDS011;60583;50.094;8.748;2023-12-04T08:16:28;16.10;;;8.50;;
72557;SDS011;60583;50.094;8.748;2023-12-04T08:18:54;21.45;;;9.05;;
72557;SDS011;60583;50.094;8.748;2023-12-04T08:21:19;19.60;;;9.73;;
72557;SDS011;60583;50.094;8.748;2023-12-04T08:23:45;18.23;;;8.57;;
72557;SDS011;60583;50.094;8.748;2023-12-04T08:26:10;17.52;;;8.05;;
72557;SDS011;60583;50.094;8.748;2023-12-04T08:28:36;19.65;;;8.75;;
72557;SDS011;60583;50.094;8.748;2023-12-04T08:31:07;18.40;;;8.77;;
72557;SDS011;60583;50.094;8.748;2023-12-04T08:33:33;21.30;;;10.48;;
72557;SDS011;60583;50.094;8.748;2023-12-04T08:35:59;23.13;;;9.65;;
72557;SDS011;60583;50.094;8.748;2023-12-04T08:38:25;18.27;;;8.43;;
72557;SDS011;60583;50.094;8.748;2023-12-04T08:40:51;18.38;;;9.02;;
72557;SDS011;60583;50.094;8.748;2023-12-04T08:43:16;20.35;;;9.95;;
72557;SDS011;60583;50.094;8.748;2023-12-04T08:45:43;19.73;;;9.40;;
72557;SDS011;60583;50.094;8.748;2023-12-04T08:48:08;19.23;;;8.32;;
72557;SDS011;60583;50.094;8.748;2023-12-04T08:50:35;18.50;;;8.75;;
72557;SDS011;60583;50.094;8.748;2023-12-04T08:53:02;19.45;;;9.00;;
72557;SDS011;60583;50.094;8.748;2023-12-04T08:55:27;19.25;;;8.93;;
72557;SDS011;60583;50.094;8.748;2023-12-04T08:57:53;19.02;;;8.50;;
72557;SDS011;60583;50.094;8.748;2023-12-04T09:00:19;19.33;;;9.40;;
72557;SDS011;60583;50.094;8.748;2023-12-04T09:02:44;17.98;;;8.52;;
72557;SDS011;60583;50.094;8.748;2023-12-04T09:05:10;19.48;;;8.73;;
72557;SDS011;60583;50.094;8.748;2023-12-04T09:07:36;18.17;;;8.93;;
72557;SDS011;60583;50.094;8.748;2023-12-04T09:10:02;19.35;;;8.80;;
72557;SDS011;60583;50.094;8.748;2023-12-04T09:12:27;17.50;;;8.80;;
72557;SDS011;60583;50.094;8.748;2023-12-04T09:14:53;20.15;;;8.70;;
72557;SDS011;60583;50.094;8.748;2023-12-04T09:17:18;19.85;;;8.63;;
72557;SDS011;60583;50.094;8.748;2023-12-04T09:19:45;18.80;;;9.13;;
72557;SDS011;60583;50.094;8.748;2023-12-04T09:22:10;17.35;;;8.05;;
72557;SDS011;60583;50.094;8.748;2023-12-04T09:24:36;16.05;;;8.45;;
72557;SDS011;60583;50.094;8.748;2023-12-04T09:27:01;17.20;;;8.23;;
72557;SDS011;60583;50.094;8.748;2023-12-04T09:29:27;16.10;;;7.72;;
72557;SDS011;60583;50.094;8.748;2023-12-04T09:31:52;19.60;;;7.95;;
72557;SDS011;60583;50.094;8.748;2023-12-04T09:34:18;16.15;;;8.25;;
72557;SDS011;60583;50.094;8.748;2023-12-04T09:36:45;15.00;;;7.50;;
72557;SDS011;60583;50.094;8.748;2023-12-04T09:39:11;17.45;;;8.38;;
72557;SDS011;60583;50.094;8.748;2023-12-04T09:41:37;17.13;;;8.55;;
72557;SDS011;60583;50.094;8.748;2023-12-04T09:44:04;15.85;;;7.78;;
72557;SDS011;60583;50.094;8.748;2023-12-04T09:46:33;17.35;;;7.85;;
72557;SDS011;60583;50.094;8.748;2023-12-04T09:49:02;17.02;;;7.68;;
72557;SDS011;60583;50.094;8.748;2023-12-04T09:51:29;15.32;;;7.70;;
72557;SDS011;60583;50.094;8.748;2023-12-04T09:53:55;17.73;;;8.27;;
72557;SDS011;60583;50.094;8.748;2023-12-04T09:56:25;17.70;;;8.52;;
72557;SDS011;60583;50.094;8.748;2023-12-04T09:58:52;17.00;;;7.47;;
72557;SDS011;60583;50.094;8.748;2023-12-04T10:01:22;17.23;;;7.90;;
72557;SDS011;60583;50.094;8.748;2023-12-04T10:03:48;16.13;;;7.68;;
72557;SDS011;60583;50.094;8.748;2023-12-04T10:06:16;18.20;;;8.80;;
72557;SDS011;60583;50.094;8.748;2023-12-04T10:08:43;18.48;;;7.85;;
72557;SDS011;60583;50.094;8.748;2023-12-04T10:11:10;15.98;;;7.32;;
72557;SDS011;60583;50.094;8.748;2023-12-04T10:13:35;17.52;;;8.05;;
72557;SDS011;60583;50.094;8.748;2023-12-04T10:16:01;16.52;;;8.48;;
72557;SDS011;60583;50.094;8.748;2023-12-04T10:18:28;18.23;;;8.35;;
72557;SDS011;60583;50.094;8.748;2023-12-04T10:20:58;16.05;;;7.72;;
72557;SDS011;60583;50.094;8.748;2023-12-04T10:23:37;16.20;;;7.72;;
72557;SDS011;60583;50.094;8.748;2023-12-04T10:26:04;16.65;;;7.68;;
72557;SDS011;60583;50.094;8.748;2023-12-04T10:28:30;16.05;;;8.57;;
72557;SDS011;60583;50.094;8.748;2023-12-04T10:30:55;15.63;;;7.72;;
72557;SDS011;60583;50.094;8.748;2023-12-04T10:33:21;15.02;;;7.40;;
72557;SDS011;60583;50.094;8.748;2023-12-04T10:35:50;15.57;;;7.18;;
72557;SDS011;60583;50.094;8.748;2023-12-04T10:38:16;15.52;;;7.13;;
72557;SDS011;60583;50.094;8.748;2023-12-04T10:40:43;16.77;;;7.53;;
72557;SDS011;60583;50.094;8.748;2023-12-04T10:45:40;17.50;;;8.20;;
72557;SDS011;60583;50.094;8.748;2023-12-04T10:48:07;16.67;;;7.38;;
72557;SDS011;60583;50.094;8.748;2023-12-04T10:50:34;15.93;;;8.05;;
72557;SDS011;60583;50.094;8.748;2023-12-04T10:53:10;15.93;;;7.40;;
72557;SDS011;60583;50.094;8.748;2023-12-04T10:55:37;18.30;;;7.97;;
72557;SDS011;60583;50.094;8.748;2023-12-04T10:58:06;16.80;;;7.57;;
72557;SDS011;60583;50.094;8.748;2023-12-04T11:00:33;15.63;;;7.50;;
72557;SDS011;60583;50.094;8.748;2023-12-04T11:03:04;16.60;;;7.70;;
72557;SDS011;60583;50.094;8.748;2023-12-04T11:05:32;16.17;;;7.50;;
72557;SDS011;60583;50.094;8.748;2023-12-04T11:08:03;14.27;;;7.15;;
72557;SDS011;60583;50.094;8.748;2023-12-04T11:10:31;15.52;;;7.28;;
72557;SDS011;60583;50.094;8.748;2023-12-04T11:13:15;16.67;;;7.70;;
72557;SDS011;60583;50.094;8.748;2023-12-04T11:15:47;15.40;;;7.70;;
72557;SDS011;60583;50.094;8.748;2023-12-04T11:18:15;14.98;;;7.72;;
72557;SDS011;60583;50.094;8.748;2023-12-04T11:20:54;17.15;;;7.18;;
72557;SDS011;60583;50.094;8.748;2023-12-04T11:23:23;16.50;;;7.63;;
72557;SDS011;60583;50.094;8.748;2023-12-04T11:25:50;16.83;;;7.97;;
72557;SDS011;60583;50.094;8.748;2023-12-04T11:28:16;18.20;;;7.57;;
72557;SDS011;60583;50.094;8.748;2023-12-04T11:30:43;18.10;;;7.80;;
72557;SDS011;60583;50.094;8.748;2023-12-04T11:33:10;15.88;;;7.53;;
72557;SDS011;60583;50.094;8.748;2023-12-04T11:35:37;15.52;;;7.47;;
72557;SDS011;60583;50.094;8.748;2023-12-04T11:38:04;17.65;;;7.72;;
72557;SDS011;60583;50.094;8.748;2023-12-04T11:40:30;17.58;;;8.10;;
72557;SDS011;60583;50.094;8.748;2023-12-04T11:42:55;17.23;;;8.32;;
72557;SDS011;60583;50.094;8.748;2023-12-04T11:45:21;19.50;;;7.82;;
72557;SDS011;60583;50.094;8.748;2023-12-04T11:47:50;15.10;;;7.43;;
72557;SDS011;60583;50.094;8.748;2023-12-04T11:50:19;15.18;;;8.15;;
72557;SDS011;60583;50.094;8.748;2023-12-04T11:52:45;15.27;;;7.85;;
72557;SDS011;60583;50.094;8.748;2023-12-04T11:55:10;16.05;;;7.75;;
72557;SDS011;60583;50.094;8.748;2023-12-04T11:57:39;17.00;;;8.55;;
72557;SDS011;60583;50.094;8.748;2023-12-04T12:05:19;16.90;;;7.38;;
72557;SDS011;60583;50.094;8.748;2023-12-04T12:07:44;16.80;;;8.23;;
72557;SDS011;60583;50.094;8.748;2023-12-04T12:10:11;15.52;;;7.38;;
72557;SDS011;60583;50.094;8.748;2023-12-04T12:12:41;16.80;;;7.32;;
72557;SDS011;60583;50.094;8.748;2023-12-04T12:15:10;17.88;;;8.73;;
72557;SDS011;60583;50.094;8.748;2023-12-04T12:17:40;17.13;;;7.82;;
72557;SDS011;60583;50.094;8.748;2023-12-04T12:20:07;16.92;;;7.88;;
72557;SDS011;60583;50.094;8.748;2023-12-04T12:22:34;16.15;;;7.85;;
72557;SDS011;60583;50.094;8.748;2023-12-04T12:25:03;19.92;;;8.75;;
72557;SDS011;60583;50.094;8.748;2023-12-04T12:27:30;17.35;;;8.63;;
72557;SDS011;60583;50.094;8.748;2023-12-04T12:30:11;21.30;;;9.18;;
72557;SDS011;60583;50.094;8.748;2023-12-04T12:32:36;21.80;;;8.95;;
72557;SDS011;60583;50.094;8.748;2023-12-04T12:35:02;18.10;;;8.02;;
72557;SDS011;60583;50.094;8.748;2023-12-04T12:40:00;16.98;;;8.18;;
72557;SDS011;60583;50.094;8.748;2023-12-04T12:42:26;19.33;;;9.43;;
72557;SDS011;60583;50.094;8.748;2023-12-04T12:44:53;19.33;;;9.05;;
72557;SDS011;60583;50.094;8.748;2023-12-04T12:47:20;18.17;;;8.55;;
72557;SDS011;60583;50.094;8.748;2023-12-04T12:49:46;19.60;;;9.57;;
72557;SDS011;60583;50.094;8.748;2023-12-04T12:52:12;17.48;;;8.40;;
72557;SDS011;60583;50.094;8.748;2023-12-04T12:54:41;19.15;;;9.05;;
72557;SDS011;60583;50.094;8.748;2023-12-04T12:57:07;18.38;;;8.50;;
72557;SDS011;60583;50.094;8.748;2023-12-04T12:59:33;19.35;;;9.23;;
72557;SDS011;60583;50.094;8.748;2023-12-04T13:01:59;18.10;;;8.70;;
72557;SDS011;60583;50.094;8.748;2023-12-04T13:04:25;17.23;;;8.50;;
72557;SDS011;60583;50.094;8.748;2023-12-04T13:06:52;18.33;;;8.75;;
72557;SDS011;60583;50.094;8.748;2023-12-04T13:09:19;18.17;;;8.10;;
72557;SDS011;60583;50.094;8.748;2023-12-04T13:11:45;17.45;;;8.25;;
72557;SDS011;60583;50.094;8.748;2023-12-04T13:14:11;19.17;;;8.80;;
72557;SDS011;60583;50.094;8.748;2023-12-04T13:16:36;19.13;;;8.38;;
72557;SDS011;60583;50.094;8.748;2023-12-04T13:19:01;22.83;;;9.63;;
72557;SDS011;60583;50.094;8.748;2023-12-04T13:21:27;21.67;;;9.30;;
72557;SDS011;60583;50.094;8.748;2023-12-04T13:23:53;18.52;;;8.80;;
72557;SDS011;60583;50.094;8.748;2023-12-04T13:26:18;20.10;;;9.63;;
72557;SDS011;60583;50.094;8.748;2023-12-04T13:28:45;20.90;;;9.15;;
72557;SDS011;60583;50.094;8.748;2023-12-04T13:31:12;17.52;;;9.00;;
72557;SDS011;60583;50.094;8.748;2023-12-04T13:33:38;23.10;;;10.05;;
72557;SDS011;60583;50.094;8.748;2023-12-04T13:36:03;21.38;;;9.50;;
72557;SDS011;60583;50.094;8.748;2023-12-04T13:38:29;21.95;;;10.10;;
72557;SDS011;60583;50.094;8.748;2023-12-04T13:40:55;28.05;;;11.15;;
72557;SDS011;60583;50.094;8.748;2023-12-04T13:43:39;23.65;;;10.00;;
72557;SDS011;60583;50.094;8.748;2023-12-04T13:46:18;22.63;;;10.05;;
72557;SDS011;60583;50.094;8.748;2023-12-04T13:48:44;21.40;;;9.27;;
72557;SDS011;60583;50.094;8.748;2023-12-04T13:51:10;20.73;;;10.10;;
72557;SDS011;60583;50.094;8.748;2023-12-04T13:53:37;19.38;;;9.43;;
72557;SDS011;60583;50.094;8.748;2023-12-04T13:56:10;18.75;;;9.27;;
72557;SDS011;60583;50.094;8.748;2023-12-04T13:58:36;21.33;;;9.43;;
72557;SDS011;60583;50.094;8.748;2023-12-04T14:01:11;24.35;;;9.45;;
72557;SDS011;60583;50.094;8.748;2023-12-04T14:03:40;20.63;;;10.20;;
72557;SDS011;60583;50.094;8.748;2023-12-04T14:06:07;18.40;;;9.38;;
72557;SDS011;60583;50.094;8.748;2023-12-04T14:08:33;21.30;;;9.48;;
72557;SDS011;60583;50.094;8.748;2023-12-04T14:10:59;19.02;;;9.13;;
72557;SDS011;60583;50.094;8.748;2023-12-04T14:13:27;17.45;;;8.95;;
72557;SDS011;60583;50.094;8.748;2023-12-04T14:15:52;22.23;;;9.93;;
72557;SDS011;60583;50.094;8.748;2023-12-04T14:18:18;19.88;;;9.30;;
72557;SDS011;60583;50.094;8.748;2023-12-04T14:20:43;16.40;;;8.50;;
72557;SDS011;60583;50.094;8.748;2023-12-04T14:23:09;18.83;;;8.73;;
72557;SDS011;60583;50.094;8.748;2023-12-04T14:25:34;18.85;;;8.52;;
72557;SDS011;60583;50.094;8.748;2023-12-04T14:27:59;19.45;;;9.07;;
72557;SDS011;60583;50.094;8.748;2023-12-04T14:30:26;17.13;;;8.40;;
72557;SDS011;60583;50.094;8.748;2023-12-04T14:32:52;21.80;;;9.38;;
72557;SDS011;60583;50.094;8.748;2023-12-04T14:35:18;21.35;;;9.35;;
72557;SDS011;60583;50.094;8.748;2023-12-04T14:37:43;18.27;;;9.07;;
72557;SDS011;60583;50.094;8.748;2023-12-04T14:40:11;18.00;;;8.77;;
72557;SDS011;60583;50.094;8.748;2023-12-04T14:42:37;18.50;;;8.75;;
72557;SDS011;60583;50.094;8.748;2023-12-04T14:45:03;18.08;;;8.68;;